createdAt,value
2022-11-15T00:00:25.051Z,186.88
2022-11-15T00:05:25.014Z,185.03
2022-11-15T00:10:24.930Z,186.05
2022-11-15T00:15:24.874Z,184.63
2022-11-15T00:20:24.817Z,183.42
2022-11-15T00:25:24.749Z,182.43
2022-11-15T00:30:24.684Z,181.65
2022-11-15T00:35:24.621Z,180.29
2022-11-15T00:40:24.559Z,180.48
2022-11-15T00:45:24.512Z,180.48
2022-11-15T00:50:24.406Z,179.33
2022-11-15T00:55:24.378Z,180.67
2022-11-15T01:00:24.283Z,179.14
2022-11-15T01:05:44.207Z,179.71
2022-11-15T01:10:36.613Z,179.52
2022-11-15T01:15:36.543Z,178.19
2022-11-15T01:20:36.488Z,178.57
2022-11-15T01:25:36.439Z,178.57
2022-11-15T01:30:36.354Z,177.26
2022-11-15T01:35:36.275Z,176.70
2022-11-15T01:40:36.210Z,176.89
2022-11-15T01:45:36.157Z,176.52
2022-11-15T01:50:36.105Z,175.96
2022-11-15T01:55:36.015Z,176.70
2022-11-15T02:00:36.015Z,177.44
2022-11-15T02:05:35.907Z,176.52
2022-11-15T02:10:35.815Z,177.63
2022-11-15T02:15:35.788Z,178.19
2022-11-15T02:20:35.712Z,178.19
2022-11-15T02:25:35.637Z,178.38
2022-11-15T02:30:35.573Z,179.71
2022-11-15T02:35:35.512Z,180.29
2022-11-15T02:40:35.444Z,178.95
2022-11-15T02:45:35.347Z,176.70
2022-11-15T02:50:35.295Z,178.57
2022-11-15T02:55:35.224Z,178.57
2022-11-15T03:00:35.237Z,176.52
2022-11-15T03:05:35.095Z,176.70
2022-11-15T03:10:35.047Z,177.07
2022-11-15T03:15:34.958Z,176.52
2022-11-15T03:20:34.896Z,175.96
2022-11-15T03:25:34.821Z,174.15
2022-11-15T03:30:34.757Z,173.25
2022-11-15T03:35:34.698Z,174.69
2022-11-15T03:40:34.626Z,175.41
2022-11-15T03:45:34.563Z,175.96
2022-11-15T03:50:34.515Z,176.15
2022-11-15T03:55:34.421Z,176.52
2022-11-15T04:00:34.356Z,177.26
2022-11-15T04:05:34.286Z,175.60
2022-11-15T04:10:34.246Z,174.51
2022-11-15T04:15:34.158Z,171.15
2022-11-15T04:20:34.095Z,171.32
2022-11-15T04:25:34.039Z,169.60
2022-11-15T04:30:33.976Z,168.08
2022-11-15T04:35:33.900Z,167.58
2022-11-15T04:40:33.840Z,167.24
2022-11-15T04:45:33.772Z,165.93
2022-11-15T04:50:33.679Z,165.44
2022-11-15T04:55:33.643Z,168.24
2022-11-15T05:00:33.568Z,167.24
2022-11-15T05:05:33.477Z,167.58
2022-11-15T05:10:33.435Z,169.26
2022-11-15T05:15:47.888Z,170.45
2022-11-15T05:20:40.280Z,170.28
2022-11-15T05:25:40.228Z,169.60
2022-11-15T05:30:40.149Z,170.63
2022-11-15T05:35:40.098Z,169.94
2022-11-15T05:40:40.030Z,169.77
2022-11-15T05:45:39.980Z,169.43
2022-11-15T05:50:39.905Z,169.60
2022-11-15T05:55:39.823Z,169.77
2022-11-15T06:00:39.762Z,168.58
2022-11-15T06:05:39.695Z,168.24
2022-11-15T06:10:39.646Z,167.58
2022-11-15T06:15:39.556Z,168.58
2022-11-15T06:20:39.498Z,168.08
2022-11-15T06:25:39.427Z,167.91
2022-11-15T06:30:39.377Z,169.26
2022-11-15T06:35:39.293Z,167.58
2022-11-15T06:40:39.228Z,167.08
2022-11-15T06:45:39.171Z,167.24
2022-11-15T06:50:39.093Z,166.09
2022-11-15T06:55:39.034Z,165.60
2022-11-15T07:00:38.976Z,165.44
2022-11-15T07:05:38.895Z,165.60
2022-11-15T07:10:39.625Z,164.63
2022-11-15T07:15:38.767Z,163.68
2022-11-15T07:20:38.864Z,163.68
2022-11-15T07:25:38.618Z,163.83
2022-11-15T07:30:42.610Z,164.47
2022-11-15T07:35:39.509Z,163.36
2022-11-15T07:40:38.415Z,164.63
2022-11-15T07:45:38.442Z,164.96
2022-11-15T07:50:38.326Z,163.68
2022-11-15T07:55:39.194Z,163.52
2022-11-15T08:00:38.178Z,162.41
2022-11-15T08:05:38.133Z,161.48
2022-11-15T08:10:40.821Z,160.87
2022-11-15T08:15:37.965Z,159.95
2022-11-15T08:20:38.017Z,159.05
2022-11-15T08:25:37.838Z,158.15
2022-11-15T08:30:37.816Z,157.27
2022-11-15T08:35:37.718Z,156.39
2022-11-15T08:40:37.636Z,155.24
2022-11-15T08:45:37.598Z,152.71
2022-11-15T08:50:37.500Z,152.03
2022-11-15T08:55:37.429Z,149.34
2022-11-15T09:00:37.362Z,149.20
2022-11-15T09:05:37.321Z,146.23
2022-11-15T09:10:37.240Z,144.97
2022-11-15T09:15:37.215Z,143.13
2022-11-15T09:20:37.120Z,141.69
2022-11-15T09:25:37.056Z,138.55
2022-11-15T09:30:36.977Z,135.11
2022-11-15T09:35:36.902Z,132.15
2022-11-15T09:40:36.903Z,128.52
2022-11-15T09:45:36.773Z,126.59
2022-11-15T09:50:36.717Z,125.09
2022-11-15T09:55:36.632Z,124.82
2022-11-15T10:00:46.357Z,124.82
2022-11-15T10:05:37.519Z,124.08
2022-11-15T10:10:36.432Z,125.09
2022-11-15T10:15:36.388Z,127.17
2022-11-15T10:20:36.302Z,124.08
2022-11-15T10:25:36.224Z,119.85
2022-11-15T10:30:36.217Z,117.68
2022-11-15T10:35:36.110Z,117.19
2022-11-15T10:40:36.053Z,116.54
2022-11-15T10:45:35.976Z,115.66
2022-11-15T10:50:35.935Z,113.64
2022-11-15T10:55:35.831Z,114.33
2022-11-15T11:00:35.787Z,116.54
2022-11-15T11:05:41.332Z,119.09
2022-11-15T11:10:50.909Z,121.32
2022-11-15T11:15:36.562Z,124.54
2022-11-15T11:20:35.532Z,129.91
2022-11-15T11:25:35.444Z,131.02
2022-11-15T11:30:35.406Z,131.73
2022-11-15T11:35:35.290Z,133.61
2022-11-15T11:40:35.255Z,133.72
2022-11-15T11:45:35.278Z,137.08
2022-11-15T11:50:36.459Z,137.98
2022-11-15T11:55:35.061Z,138.66
2022-11-15T12:00:34.985Z,138.89
2022-11-15T12:05:34.924Z,133.72
2022-11-15T12:10:34.827Z,129.81
2022-11-15T12:15:34.808Z,130.91
2022-11-15T12:20:34.749Z,131.43
2022-11-15T12:25:34.632Z,132.87
2022-11-15T12:30:34.620Z,137.53
2022-11-15T12:35:34.539Z,139.58
2022-11-15T12:40:34.521Z,141.33
2022-11-15T12:45:34.385Z,143.49
2022-11-15T12:50:34.325Z,147.64
2022-11-15T12:55:34.251Z,149.47
2022-11-15T13:00:34.180Z,150.00
2022-11-15T13:05:34.125Z,149.47
2022-11-15T13:10:34.036Z,148.68
2022-11-15T13:15:36.942Z,149.07
2022-11-15T13:20:34.909Z,148.94
2022-11-15T13:25:33.845Z,148.55
2022-11-15T13:30:33.802Z,149.47
2022-11-15T13:35:33.725Z,150.54
2022-11-15T13:40:33.652Z,151.35
2022-11-15T13:45:33.588Z,151.48
2022-11-15T13:50:33.529Z,150.80
2022-11-15T13:55:33.431Z,152.71
2022-11-15T14:00:33.536Z,152.58
2022-11-15T14:05:33.339Z,155.24
2022-11-15T14:10:33.241Z,155.82
2022-11-15T14:15:33.181Z,155.67
2022-11-15T14:20:33.119Z,154.25
2022-11-15T14:25:33.036Z,154.82
2022-11-15T14:30:32.986Z,158.45
2022-11-15T14:35:32.922Z,156.10
2022-11-15T14:40:33.030Z,158.01
2022-11-15T14:45:32.780Z,158.30
2022-11-15T14:50:33.056Z,159.95
2022-11-15T14:55:32.661Z,162.26
2022-11-15T15:00:35.253Z,160.71
2022-11-15T15:05:32.542Z,163.36
2022-11-15T15:10:40.045Z,161.79
2022-11-15T15:15:33.392Z,163.36
2022-11-15T15:20:32.505Z,164.96
2022-11-15T15:25:32.276Z,164.63
2022-11-15T15:30:32.175Z,164.47
2022-11-15T15:35:32.522Z,165.44
2022-11-15T15:40:32.210Z,166.09
2022-11-15T15:45:31.989Z,165.93
2022-11-15T15:50:31.962Z,164.79
2022-11-15T15:55:32.011Z,163.99
2022-11-15T16:00:31.810Z,162.73
2022-11-15T16:05:31.757Z,162.26
2022-11-15T16:10:31.691Z,161.33
2022-11-15T16:15:31.627Z,162.10
2022-11-15T16:20:31.558Z,161.33
2022-11-15T16:25:31.512Z,161.33
2022-11-15T16:30:31.408Z,160.56
2022-11-15T16:35:31.377Z,161.95
2022-11-15T16:40:31.304Z,161.48
2022-11-15T16:45:31.229Z,162.26
2022-11-15T16:50:31.136Z,162.41
2022-11-15T16:55:31.063Z,162.26
2022-11-15T17:00:31.050Z,162.10
2022-11-15T17:05:30.959Z,161.79
2022-11-15T17:10:30.902Z,161.79
2022-11-15T17:15:30.814Z,162.73
2022-11-15T17:20:30.757Z,163.36
2022-11-15T17:25:30.775Z,163.99
2022-11-15T17:30:30.617Z,163.68
2022-11-15T17:35:30.548Z,163.68
2022-11-15T17:40:30.485Z,162.10
2022-11-15T17:45:30.417Z,162.10
2022-11-15T17:50:30.351Z,162.41
2022-11-15T17:55:30.281Z,162.73
2022-11-15T18:00:30.221Z,161.79
2022-11-15T18:05:30.146Z,160.56
2022-11-15T18:10:30.091Z,160.56
2022-11-15T18:15:30.034Z,158.90
2022-11-15T18:20:29.965Z,160.26
2022-11-15T18:25:29.875Z,159.35
2022-11-15T18:30:29.819Z,159.20
2022-11-15T18:35:29.750Z,159.65
2022-11-15T18:40:29.688Z,160.10
2022-11-15T18:45:29.616Z,160.26
2022-11-15T18:50:29.558Z,161.79
2022-11-15T18:55:29.624Z,160.87
2022-11-15T19:00:29.610Z,161.79
2022-11-15T19:05:29.357Z,162.26
2022-11-15T19:10:29.382Z,162.89
2022-11-15T19:15:29.245Z,162.89
2022-11-15T19:20:29.155Z,162.73
2022-11-15T19:25:29.449Z,162.41
2022-11-15T19:30:29.069Z,161.48
2022-11-15T19:35:29.080Z,160.87
2022-11-15T19:40:28.909Z,162.89
2022-11-15T19:45:28.837Z,161.33
2022-11-15T19:50:28.789Z,161.17
2022-11-15T19:55:28.719Z,162.26
2022-11-15T20:00:28.634Z,163.20
2022-11-15T20:05:28.550Z,162.10
2022-11-15T20:10:28.534Z,163.68
2022-11-15T20:15:28.445Z,162.26
2022-11-15T20:20:28.359Z,160.87
2022-11-15T20:25:28.310Z,160.26
2022-11-15T20:30:28.242Z,161.79
2022-11-15T20:35:28.149Z,160.87
2022-11-15T20:40:28.096Z,160.87
2022-11-15T20:45:28.041Z,160.71
2022-11-15T20:50:42.039Z,162.57
2022-11-15T20:55:28.890Z,161.17
2022-11-15T21:00:27.860Z,161.33
2022-11-15T21:05:27.792Z,161.95
2022-11-15T21:10:27.710Z,162.89
2022-11-15T21:15:27.640Z,162.10
2022-11-15T21:20:27.671Z,162.73
2022-11-15T21:25:27.494Z,162.89
2022-11-15T21:30:27.487Z,162.57
2022-11-15T21:35:27.386Z,162.89
2022-11-15T21:40:27.283Z,162.57
2022-11-15T21:45:27.230Z,162.73
2022-11-15T21:50:27.167Z,163.04
2022-11-15T21:55:27.114Z,163.20
2022-11-15T22:00:27.369Z,164.79
2022-11-15T22:05:26.972Z,164.79
2022-11-15T22:10:26.903Z,165.28
2022-11-15T22:15:26.826Z,167.08
2022-11-15T22:25:27.824Z,169.94
2022-11-15T22:30:26.624Z,169.94
2022-11-15T22:35:26.564Z,170.45
2022-11-15T22:40:26.505Z,169.09
2022-11-15T22:45:26.436Z,169.60
2022-11-15T22:50:26.365Z,168.08
2022-11-15T22:55:26.316Z,167.58
2022-11-15T23:00:26.245Z,166.91
2022-11-15T23:05:26.171Z,165.28
2022-11-15T23:10:26.099Z,166.26
2022-11-15T23:15:30.848Z,165.93
2022-11-15T23:20:42.461Z,164.96
2022-11-15T23:25:26.878Z,163.68
2022-11-15T23:30:25.831Z,164.96
2022-11-15T23:35:25.773Z,163.04
2022-11-15T23:40:25.705Z,163.99
2022-11-15T23:45:25.623Z,164.47
2022-11-15T23:50:25.587Z,163.36
2022-11-15T23:55:25.498Z,162.10
